createdAt,value
2019-03-31T10:38:05.734Z,16.10
2019-03-31T10:40:37.510Z,16.10
2019-03-31T10:43:07.908Z,16.30
2019-03-31T10:45:37.871Z,16.10
2019-03-31T10:48:19.624Z,16.00
2019-03-31T10:50:39.246Z,16.00
2019-03-31T10:53:09.117Z,16.00
2019-03-31T10:55:37.338Z,16.10
2019-03-31T10:58:05.572Z,16.30
2019-03-31T11:00:35.991Z,16.50
2019-03-31T11:03:05.350Z,16.40
2019-03-31T11:05:34.858Z,16.60
2019-03-31T11:08:09.000Z,16.60
2019-03-31T11:10:36.555Z,16.30
2019-03-31T11:13:07.526Z,16.20
2019-03-31T11:15:37.265Z,16.30
2019-03-31T11:18:08.443Z,16.30
2019-03-31T11:20:36.702Z,16.20
2019-03-31T11:23:18.310Z,16.10
2019-03-31T11:25:46.560Z,16.30
2019-03-31T11:28:15.922Z,16.50
2019-03-31T11:30:47.098Z,16.70
2019-03-31T11:33:15.318Z,16.70
2019-03-31T11:35:44.811Z,17.00
2019-03-31T11:38:13.106Z,17.40
2019-03-31T11:40:43.208Z,17.80
2019-03-31T11:43:11.460Z,17.70
2019-03-31T11:45:39.918Z,17.60
2019-03-31T11:48:09.777Z,17.70
2019-03-31T11:50:39.629Z,17.50
2019-03-31T11:53:08.852Z,17.80
2019-03-31T11:55:37.849Z,17.60
2019-03-31T11:58:06.636Z,17.70
2019-03-31T12:00:36.979Z,17.70
2019-03-31T12:03:06.456Z,17.60
2019-03-31T12:05:34.854Z,17.30
2019-03-31T12:08:03.641Z,17.30
2019-03-31T12:10:32.886Z,17.60
2019-03-31T12:13:01.373Z,17.60
2019-03-31T12:15:30.169Z,17.50
2019-03-31T12:17:58.398Z,17.70
2019-03-31T12:20:29.503Z,17.40
2019-03-31T12:22:57.734Z,17.10
2019-03-31T12:25:26.234Z,17.00
2019-03-31T12:27:54.466Z,16.90
2019-03-31T12:30:29.803Z,17.00
2019-03-31T12:32:58.196Z,17.00
2019-03-31T12:35:26.648Z,17.10
2019-03-31T12:37:55.935Z,17.10
2019-03-31T12:40:34.504Z,17.20
2019-03-31T12:43:02.735Z,17.50
2019-03-31T12:45:32.077Z,17.70
2019-03-31T12:48:01.428Z,18.00
2019-03-31T12:50:29.842Z,18.00
2019-03-31T12:53:00.470Z,17.90
2019-03-31T12:55:28.720Z,17.70
2019-03-31T12:57:56.962Z,17.80
2019-03-31T13:00:25.198Z,17.70
2019-03-31T13:02:56.327Z,17.50
2019-03-31T13:05:24.789Z,17.40
2019-03-31T13:07:56.555Z,17.40
2019-03-31T13:10:25.607Z,17.20
2019-03-31T13:12:55.483Z,17.30
2019-03-31T13:15:26.854Z,17.30
2019-03-31T13:17:56.347Z,17.20
2019-03-31T13:20:24.853Z,17.50
2019-03-31T13:22:53.071Z,17.70
2019-03-31T13:25:23.915Z,17.20
2019-03-31T13:27:58.112Z,17.10
2019-03-31T13:30:26.617Z,17.10
2019-03-31T13:32:58.458Z,17.10
2019-03-31T13:35:27.785Z,16.90
2019-03-31T13:38:09.939Z,17.00
2019-03-31T13:40:25.977Z,17.20
2019-03-31T13:42:56.934Z,17.00
2019-03-31T13:45:25.173Z,16.90
2019-03-31T13:47:53.406Z,16.70
2019-03-31T13:50:33.101Z,16.70
2019-03-31T13:52:54.404Z,16.50
2019-03-31T13:55:24.257Z,16.50
2019-03-31T13:57:53.514Z,16.30
2019-03-31T14:00:40.553Z,16.30
2019-03-31T14:03:09.620Z,16.10
2019-03-31T14:05:39.594Z,16.10
2019-03-31T14:08:09.453Z,16.10
2019-03-31T14:10:39.727Z,15.90
2019-03-31T14:13:07.942Z,15.70
2019-03-31T14:15:39.665Z,15.50
2019-03-31T14:18:07.892Z,15.50
2019-03-31T14:20:37.094Z,15.30
2019-03-31T14:23:06.531Z,14.90
2019-03-31T14:25:34.765Z,14.60
2019-03-31T14:28:04.409Z,14.20
2019-03-31T14:30:33.635Z,14.10
2019-03-31T14:33:03.853Z,13.80
2019-03-31T14:35:32.082Z,13.80
2019-03-31T14:38:00.538Z,13.80
2019-03-31T14:40:28.764Z,13.70
2019-03-31T14:42:58.689Z,13.60
2019-03-31T14:45:33.975Z,13.50
2019-03-31T14:48:03.753Z,13.40
2019-03-31T14:50:43.881Z,13.40
2019-03-31T14:53:05.178Z,13.40
2019-03-31T14:55:34.094Z,13.30
2019-03-31T14:58:03.075Z,13.40
2019-03-31T15:00:38.672Z,13.30
2019-03-31T15:03:09.759Z,13.30
2019-03-31T15:05:38.128Z,13.30
2019-03-31T15:08:07.140Z,13.20
2019-03-31T15:10:37.296Z,13.30
2019-03-31T15:13:09.010Z,13.30
2019-03-31T15:15:38.518Z,13.30
2019-03-31T15:18:06.743Z,13.50
2019-03-31T15:20:34.984Z,13.40
2019-03-31T15:23:04.473Z,13.30
2019-03-31T15:25:36.254Z,13.40
2019-03-31T15:28:04.467Z,13.40
2019-03-31T15:30:35.066Z,13.40
2019-03-31T15:33:05.166Z,13.40
2019-03-31T15:35:37.701Z,13.30
2019-03-31T15:38:05.554Z,13.40
2019-03-31T15:40:34.207Z,13.50
2019-03-31T15:43:03.011Z,13.50
2019-03-31T15:45:31.239Z,13.60
2019-03-31T15:47:59.486Z,13.50
2019-03-31T15:50:29.360Z,13.40
2019-03-31T15:53:00.935Z,13.40
2019-03-31T15:55:31.125Z,13.40
2019-03-31T15:58:05.301Z,13.30
2019-03-31T16:00:35.331Z,13.20
2019-03-31T16:03:03.743Z,13.20
2019-03-31T16:05:33.493Z,13.20
2019-03-31T16:08:09.481Z,13.20
2019-03-31T16:10:38.767Z,13.20
2019-03-31T16:13:09.787Z,13.10
2019-03-31T16:15:39.612Z,13.10
2019-03-31T16:18:09.487Z,13.00
2019-03-31T16:20:39.378Z,13.00
2019-03-31T16:23:25.089Z,12.90
2019-03-31T16:25:56.232Z,12.80
2019-03-31T16:28:24.508Z,12.80
2019-03-31T16:30:52.764Z,12.90
2019-03-31T16:33:25.447Z,12.90
2019-03-31T16:35:59.131Z,12.90
2019-03-31T16:38:31.704Z,12.80
2019-03-31T16:41:00.914Z,12.70
2019-03-31T16:43:31.220Z,12.60
2019-03-31T16:46:01.677Z,12.60
2019-03-31T16:48:31.550Z,12.70
2019-03-31T16:51:02.494Z,12.70
2019-03-31T16:53:32.383Z,12.70
2019-03-31T16:56:00.602Z,12.50
2019-03-31T16:58:29.796Z,12.30
2019-03-31T17:00:58.047Z,12.20
2019-03-31T17:03:26.865Z,11.90
2019-03-31T17:05:55.155Z,11.70
2019-03-31T17:08:25.258Z,11.60
2019-03-31T17:10:54.553Z,11.60
2019-03-31T17:13:24.430Z,11.50
2019-03-31T17:15:54.146Z,11.40
2019-03-31T17:18:24.002Z,11.30
2019-03-31T17:20:52.239Z,11.20
2019-03-31T17:23:20.467Z,11.10
2019-03-31T17:25:51.574Z,11.00
2019-03-31T17:28:22.506Z,10.90
2019-03-31T17:30:56.458Z,10.80
2019-03-31T17:33:26.350Z,10.70
2019-03-31T17:35:54.839Z,10.60
2019-03-31T17:38:24.105Z,10.40
2019-03-31T17:40:52.935Z,10.30
2019-03-31T17:43:22.658Z,10.10
2019-03-31T17:45:50.889Z,10.00
2019-03-31T17:48:20.928Z,9.90
2019-03-31T17:50:49.162Z,9.80
2019-03-31T17:53:17.399Z,9.80
2019-03-31T17:55:47.275Z,9.70
2019-03-31T17:58:21.042Z,9.50
2019-03-31T18:00:49.266Z,9.40
2019-03-31T18:03:17.973Z,9.40
2019-03-31T18:05:46.201Z,9.30
2019-03-31T18:08:15.647Z,9.30
2019-03-31T18:10:47.026Z,9.10
2019-03-31T18:13:15.511Z,9.10
2019-03-31T18:15:45.491Z,9.10
2019-03-31T18:18:16.950Z,9.00
2019-03-31T18:20:45.233Z,8.90
2019-03-31T18:23:14.754Z,8.60
2019-03-31T18:25:45.302Z,8.50
2019-03-31T18:28:14.951Z,8.50
2019-03-31T18:30:44.197Z,8.40
2019-03-31T18:33:14.049Z,8.40
2019-03-31T18:35:45.490Z,8.30
2019-03-31T18:38:16.499Z,8.40
2019-03-31T18:40:47.635Z,8.30
2019-03-31T18:43:19.498Z,8.30
2019-03-31T18:45:52.090Z,8.20
2019-03-31T18:48:21.955Z,8.00
2019-03-31T18:50:51.456Z,7.90
2019-03-31T18:53:24.890Z,7.80
2019-03-31T18:56:12.676Z,7.80
2019-03-31T18:58:46.905Z,7.70
2019-03-31T19:01:31.906Z,7.70
2019-03-31T19:04:05.247Z,7.60
2019-03-31T19:06:45.841Z,7.60
2019-03-31T19:09:40.603Z,7.40
2019-03-31T19:12:16.549Z,7.20
2019-03-31T19:15:02.851Z,7.20
2019-03-31T19:17:51.053Z,7.30
2019-03-31T19:20:38.363Z,7.40
2019-03-31T19:23:28.006Z,7.40
2019-03-31T19:26:01.106Z,7.50
2019-03-31T19:28:35.643Z,7.50
2019-03-31T19:31:25.757Z,7.40
2019-03-31T19:37:05.091Z,7.20
2019-03-31T19:39:56.019Z,7.20
2019-03-31T19:45:45.899Z,7.20
2019-03-31T19:48:31.844Z,7.20
2019-03-31T19:51:11.718Z,7.20
2019-03-31T19:54:00.503Z,7.30
2019-03-31T19:56:34.661Z,7.20
2019-03-31T19:59:04.771Z,7.20
2019-03-31T20:01:52.827Z,7.20
2019-03-31T20:04:29.326Z,7.00
2019-03-31T20:07:00.835Z,7.00
2019-03-31T20:09:48.171Z,6.80
2019-03-31T20:12:27.251Z,6.60
2019-03-31T20:15:15.146Z,6.70
2019-03-31T20:17:50.405Z,6.60
2019-03-31T20:20:29.314Z,6.50
2019-03-31T20:23:03.432Z,6.50
2019-03-31T20:25:54.045Z,6.50
2019-03-31T20:28:37.382Z,6.60
2019-03-31T20:31:31.832Z,6.50
2019-03-31T20:34:21.182Z,6.40
2019-03-31T20:36:58.986Z,6.40
2019-03-31T20:39:32.278Z,6.50
2019-03-31T20:42:12.949Z,6.50
2019-03-31T20:44:43.143Z,6.40
2019-03-31T20:47:12.074Z,6.20
2019-03-31T20:49:47.210Z,6.20
2019-03-31T20:52:19.524Z,6.30
2019-03-31T20:54:46.234Z,6.30
2019-03-31T20:57:15.728Z,6.20
2019-03-31T20:59:44.404Z,6.10
2019-03-31T21:02:19.926Z,6.10
2019-03-31T21:04:49.368Z,6.20
2019-03-31T21:07:24.506Z,6.40
2019-03-31T21:09:59.287Z,6.50
2019-03-31T21:12:28.007Z,6.40
2019-03-31T21:14:59.609Z,6.40
2019-03-31T21:17:27.944Z,6.20
2019-03-31T21:20:05.190Z,6.10
2019-03-31T21:22:36.435Z,6.00
2019-03-31T21:25:06.714Z,6.10
2019-03-31T21:27:37.849Z,6.10
2019-03-31T21:30:06.836Z,6.20
2019-03-31T21:32:37.825Z,6.10
2019-03-31T21:35:06.624Z,6.10
2019-03-31T21:37:38.583Z,6.00
2019-03-31T21:40:07.925Z,6.10
2019-03-31T21:42:36.885Z,6.10
2019-03-31T21:45:05.919Z,6.10
2019-03-31T21:47:34.134Z,5.90
2019-03-31T21:50:02.363Z,5.70
2019-03-31T21:52:30.894Z,5.50
2019-03-31T21:54:59.097Z,5.30
2019-03-31T21:57:28.942Z,5.20
2019-03-31T21:59:59.265Z,5.20
2019-03-31T22:02:28.442Z,5.10
2019-03-31T22:04:57.756Z,5.20
2019-03-31T22:07:25.975Z,5.40
2019-03-31T22:09:56.302Z,5.30
2019-03-31T22:12:24.513Z,5.20
2019-03-31T22:14:52.761Z,5.00
2019-03-31T22:17:21.650Z,4.90
2019-03-31T22:19:49.890Z,4.80
2019-03-31T22:22:18.117Z,4.80
2019-03-31T22:24:46.353Z,4.70
2019-03-31T22:27:14.574Z,4.70
2019-03-31T22:29:42.803Z,4.60
2019-03-31T22:32:12.653Z,4.50
2019-03-31T22:34:40.880Z,4.40
2019-03-31T22:37:09.331Z,4.30
2019-03-31T22:39:37.754Z,4.40
2019-03-31T22:42:06.607Z,4.40
2019-03-31T22:44:35.085Z,4.30
2019-03-31T22:47:03.890Z,4.30
2019-03-31T22:49:32.115Z,4.30
2019-03-31T22:52:00.574Z,4.30
2019-03-31T22:54:28.824Z,4.30
2019-03-31T22:56:57.062Z,4.20
2019-03-31T22:59:26.920Z,4.20
2019-03-31T23:01:55.148Z,4.00
2019-03-31T23:04:23.618Z,3.90
2019-03-31T23:06:51.847Z,3.80
2019-03-31T23:09:20.761Z,3.80
2019-03-31T23:11:48.985Z,3.80
2019-03-31T23:14:17.204Z,3.80
2019-03-31T23:16:45.914Z,3.80
2019-03-31T23:19:14.129Z,3.80
2019-03-31T23:21:42.368Z,3.80
2019-03-31T23:24:10.584Z,3.80
2019-03-31T23:26:38.798Z,3.90
2019-03-31T23:29:10.383Z,3.90
2019-03-31T23:31:38.613Z,3.80
2019-03-31T23:34:06.905Z,3.80
2019-03-31T23:36:36.314Z,3.70
2019-03-31T23:39:06.494Z,3.40
2019-03-31T23:41:35.806Z,3.30
2019-03-31T23:44:05.570Z,3.30
2019-03-31T23:46:33.889Z,3.30
2019-03-31T23:49:02.123Z,3.20
2019-03-31T23:51:30.583Z,3.30
2019-03-31T23:53:59.148Z,3.30
2019-03-31T23:56:29.930Z,3.20
2019-03-31T23:58:58.366Z,3.10
